Time;durP1;ratioP1;P1;durP2;ratioP2;P2;SDS_P1;SDS_P2;PMS_P1;PMS_P2;Temp;Humidity;BMP_temperature;BMP_pressure;BME280_temperature;BME280_humidity;BME280_pressure;Samples;Min_cycle;Max_cycle;Signal;HPM_P1;HPM_P2
2024/03/28 00:01:16;;;;;;;21.05;8.93;;;;;;;4.52;100.00;94822.34;5113079;28;20400;-76
2024/03/28 00:03:42;;;;;;;26.83;10.38;;;;;;;4.42;100.00;94810.13;5113133;28;20449;-76
2024/03/28 00:06:08;;;;;;;25.45;9.50;;;;;;;4.38;100.00;94809.09;5112866;28;20389;-76
2024/03/28 00:08:36;;;;;;;23.33;10.38;;;;;;;4.36;100.00;94807.84;5104610;28;20412;-76
2024/03/28 00:11:02;;;;;;;23.10;9.57;;;;;;;4.28;100.00;94807.34;5096671;28;20429;-76
2024/03/28 00:13:28;;;;;;;25.88;10.38;;;;;;;4.21;100.00;94811.34;5113007;28;20448;-76
2024/03/28 00:15:58;;;;;;;21.38;9.82;;;;;;;4.13;100.00;94820.56;5112550;28;20399;-76
2024/03/28 00:18:25;;;;;;;20.05;9.73;;;;;;;4.09;100.00;94819.53;5106118;28;20433;-76
2024/03/28 00:20:58;;;;;;;17.45;9.07;;;;;;;3.94;100.00;94811.00;5093096;28;20911;-77
2024/03/28 00:23:24;;;;;;;18.63;9.30;;;;;;;3.88;100.00;94805.03;5113167;28;20396;-75
2024/03/28 00:25:56;;;;;;;23.90;9.57;;;;;;;3.83;100.00;94797.22;5105769;28;20402;-76
2024/03/28 00:28:22;;;;;;;18.90;9.18;;;;;;;3.81;100.00;94791.47;5107216;28;20450;-76
2024/03/28 00:30:49;;;;;;;20.58;9.45;;;;;;;3.79;100.00;94793.56;5100475;28;20381;-76
2024/03/28 00:33:16;;;;;;;23.30;9.65;;;;;;;3.77;100.00;94812.16;5106288;28;20400;-76
2024/03/28 00:35:42;;;;;;;22.83;9.17;;;;;;;3.67;100.00;94808.81;5106378;28;20861;-76
2024/03/28 00:38:09;;;;;;;24.90;9.60;;;;;;;3.61;100.00;94805.44;5107879;28;20910;-76
2024/03/28 00:40:36;;;;;;;21.35;8.63;;;;;;;3.52;100.00;94804.47;5100643;28;20392;-75
2024/03/28 00:43:04;;;;;;;20.80;8.95;;;;;;;3.50;100.00;94793.47;5095990;28;20444;-76
2024/03/28 00:45:30;;;;;;;21.33;9.50;;;;;;;3.43;100.00;94791.16;5111949;28;20400;-76
2024/03/28 00:47:56;;;;;;;20.23;8.82;;;;;;;3.44;100.00;94795.34;5104000;28;20411;-76
2024/03/28 00:50:22;;;;;;;24.13;9.88;;;;;;;3.46;100.00;94797.66;5112027;28;20415;-76
2024/03/28 00:52:48;;;;;;;26.88;11.10;;;;;;;3.45;100.00;94793.50;5103715;28;20406;-76
2024/03/28 00:55:15;;;;;;;23.00;9.27;;;;;;;3.43;100.00;94793.78;5111931;28;20392;-77
2024/03/28 00:57:41;;;;;;;23.73;10.02;;;;;;;3.44;100.00;94790.13;5112149;28;20397;-76
2024/03/28 01:00:09;;;;;;;20.17;9.15;;;;;;;3.36;100.00;94789.91;5107610;28;20542;-76
2024/03/28 01:02:36;;;;;;;22.65;10.40;;;;;;;3.34;100.00;94786.75;5100104;28;20445;-76
2024/03/28 01:05:02;;;;;;;18.30;9.45;;;;;;;3.27;100.00;94786.28;5091998;28;20786;-76
2024/03/28 01:07:28;;;;;;;20.33;9.63;;;;;;;3.23;100.00;94783.44;5107475;28;20396;-76
2024/03/28 01:09:54;;;;;;;23.47;10.17;;;;;;;3.12;100.00;94774.06;5103232;28;21039;-77
2024/03/28 01:12:20;;;;;;;24.85;11.02;;;;;;;3.14;100.00;94781.63;5103890;28;20423;-74
2024/03/28 01:14:47;;;;;;;23.98;10.45;;;;;;;3.11;100.00;94775.88;5095697;28;20398;-76
2024/03/28 01:17:14;;;;;;;26.50;11.02;;;;;;;3.08;100.00;94771.19;5103194;28;20449;-77
2024/03/28 01:19:40;;;;;;;24.70;10.02;;;;;;;3.09;100.00;94775.34;5112385;28;20408;-77
2024/03/28 01:22:06;;;;;;;23.85;10.18;;;;;;;3.09;100.00;94766.72;5112066;28;20402;-77
2024/03/28 01:24:32;;;;;;;24.80;11.30;;;;;;;3.03;100.00;94762.59;5103392;28;20392;-76
2024/03/28 01:26:59;;;;;;;24.50;10.00;;;;;;;3.04;100.00;94764.16;5111903;28;20491;-76
2024/03/28 01:29:25;;;;;;;23.23;10.20;;;;;;;2.95;100.00;94758.69;5105835;28;20406;-77
2024/03/28 01:31:51;;;;;;;20.67;9.55;;;;;;;2.91;100.00;94765.50;5110633;28;20505;-76
2024/03/28 01:34:18;;;;;;;25.08;10.73;;;;;;;2.90;100.00;94769.16;5108735;28;20428;-74
2024/03/28 01:36:44;;;;;;;24.60;9.82;;;;;;;2.86;100.00;94762.13;5101999;28;20452;-74
2024/03/28 01:39:11;;;;;;;21.17;9.70;;;;;;;2.78;100.00;94760.06;5111512;28;20469;-76
2024/03/28 01:41:37;;;;;;;24.55;10.60;;;;;;;2.82;100.00;94763.72;5111659;28;20404;-77
2024/03/28 01:44:03;;;;;;;24.40;10.47;;;;;;;2.80;100.00;94755.34;5107914;28;20399;-76
2024/03/28 01:46:29;;;;;;;23.92;9.68;;;;;;;2.73;100.00;94740.75;5099698;28;20501;-77
2024/03/28 01:48:57;;;;;;;21.75;10.23;;;;;;;2.75;100.00;94742.31;5108222;28;21033;-76
2024/03/28 01:51:24;;;;;;;22.52;10.00;;;;;;;2.70;100.00;94740.50;5106436;28;20757;-75
2024/03/28 01:53:51;;;;;;;22.02;10.15;;;;;;;2.67;100.00;94749.66;5109359;28;20395;-76
2024/03/28 01:56:18;;;;;;;24.55;9.20;;;;;;;2.60;100.00;94756.19;5103010;28;20877;-75
2024/03/28 01:58:45;;;;;;;24.92;10.60;;;;;;;2.58;100.00;94748.63;5109443;28;20408;-76
2024/03/28 02:01:13;;;;;;;27.65;10.50;;;;;;;2.53;100.00;94748.66;5112097;28;20867;-76
2024/03/28 02:03:39;;;;;;;24.55;9.85;;;;;;;2.48;100.00;94740.03;5111076;28;20892;-76
2024/03/28 02:06:05;;;;;;;23.88;10.45;;;;;;;2.51;100.00;94742.13;5103472;28;20398;-76
2024/03/28 02:08:33;;;;;;;20.30;9.75;;;;;;;2.46;100.00;94742.13;5103319;28;20443;-75
2024/03/28 02:10:59;;;;;;;23.73;9.60;;;;;;;2.40;100.00;94743.97;5113089;28;20862;-76
2024/03/28 02:13:26;;;;;;;22.98;9.52;;;;;;;2.37;100.00;94747.09;5115505;28;20393;-76
2024/03/28 02:15:52;;;;;;;23.50;10.03;;;;;;;2.40;100.00;94751.81;5112718;28;20428;-76
2024/03/28 02:18:21;;;;;;;24.25;10.27;;;;;;;2.37;100.00;94752.31;5109078;28;20819;-75
2024/03/28 02:20:48;;;;;;;24.45;10.25;;;;;;;2.33;100.00;94752.06;5106420;28;20432;-76
2024/03/28 02:23:15;;;;;;;25.50;10.20;;;;;;;2.34;100.00;94755.44;5109931;28;20417;-77
2024/03/28 02:25:42;;;;;;;21.52;9.50;;;;;;;2.37;100.00;94756.75;5112267;28;20429;-76
2024/03/28 02:28:09;;;;;;;25.25;9.52;;;;;;;2.35;100.00;94757.00;5115174;28;20400;-75
2024/03/28 02:30:35;;;;;;;21.17;9.45;;;;;;;2.34;100.00;94745.78;5106504;28;20438;-76
2024/03/28 02:33:01;;;;;;;22.45;9.52;;;;;;;2.35;100.00;94757.00;5098116;28;20385;-76
2024/03/28 02:35:27;;;;;;;24.33;9.75;;;;;;;2.33;100.00;94753.91;5108680;28;20396;-76
2024/03/28 02:37:56;;;;;;;20.40;9.02;;;;;;;2.27;100.00;94747.09;5114833;28;20446;-76
2024/03/28 02:40:24;;;;;;;20.70;9.30;;;;;;;2.26;100.00;94743.72;5106242;28;20408;-76
2024/03/28 02:42:50;;;;;;;21.40;9.70;;;;;;;2.27;100.00;94747.91;5105949;28;21055;-76
2024/03/28 02:45:16;;;;;;;21.80;9.35;;;;;;;2.28;100.00;94744.25;5114232;28;20818;-76
2024/03/28 02:47:42;;;;;;;26.38;9.77;;;;;;;2.26;100.00;94740.31;5116015;28;20400;-76
2024/03/28 02:50:09;;;;;;;25.05;10.18;;;;;;;2.27;100.00;94734.06;5106115;28;20483;-76
2024/03/28 02:52:36;;;;;;;22.67;10.00;;;;;;;2.26;100.00;94737.72;5114936;28;20404;-76
2024/03/28 02:55:03;;;;;;;26.92;10.35;;;;;;;2.22;100.00;94740.06;5094408;28;20859;-76
2024/03/28 02:57:30;;;;;;;24.33;9.93;;;;;;;2.21;100.00;94738.50;5109860;28;20545;-76
2024/03/28 02:59:56;;;;;;;24.45;9.65;;;;;;;2.19;100.00;94737.19;5114068;28;20448;-76
2024/03/28 03:02:23;;;;;;;25.05;10.35;;;;;;;2.20;100.00;94739.56;5107677;28;20801;-76
2024/03/28 03:04:49;;;;;;;26.02;10.50;;;;;;;2.20;100.00;94746.59;5112442;28;20483;-76
2024/03/28 03:07:15;;;;;;;25.35;10.32;;;;;;;2.19;100.00;94760.69;5105741;28;20718;-76
2024/03/28 03:09:42;;;;;;;25.88;10.50;;;;;;;2.19;100.00;94758.84;5105593;28;20419;-76
2024/03/28 03:12:08;;;;;;;31.35;11.43;;;;;;;2.16;100.00;94754.19;5113862;28;20426;-76
2024/03/28 03:14:35;;;;;;;27.73;11.25;;;;;;;2.20;100.00;94747.38;5114213;28;20472;-77
2024/03/28 03:17:02;;;;;;;26.30;10.40;;;;;;;2.22;100.00;94741.91;5105455;28;20418;-76
2024/03/28 03:19:28;;;;;;;19.00;8.80;;;;;;;2.13;100.00;94741.66;5114208;28;20497;-75
2024/03/28 03:21:54;;;;;;;24.17;9.27;;;;;;;2.02;100.00;94734.88;5113909;28;20513;-76
2024/03/28 03:24:20;;;;;;;25.88;9.77;;;;;;;2.02;100.00;94729.69;5108988;28;20389;-76
2024/03/28 03:26:52;;;;;;;24.23;9.88;;;;;;;1.99;100.00;94737.22;5094806;28;20898;-76
2024/03/28 03:34:50;;;;;;;26.55;10.77;;;;;;;1.89;100.00;94725.75;5105627;28;20402;-76
2024/03/28 03:37:22;;;;;;;21.92;9.55;;;;;;;1.93;100.00;94728.63;5099157;28;20426;-76
2024/03/28 03:39:53;;;;;;;23.35;9.70;;;;;;;1.86;100.00;94722.91;5104816;28;20464;-76
2024/03/28 03:42:19;;;;;;;25.35;10.57;;;;;;;1.87;100.00;94716.63;5114217;28;20427;-76
2024/03/28 03:44:45;;;;;;;27.73;10.13;;;;;;;1.80;100.00;94721.34;5105001;28;20393;-76
2024/03/28 03:47:13;;;;;;;23.13;9.80;;;;;;;1.77;100.00;94727.84;5113028;28;20401;-76
2024/03/28 03:49:46;;;;;;;23.35;9.75;;;;;;;1.75;100.00;94726.53;5104565;28;20415;-76
2024/03/28 03:52:16;;;;;;;23.00;10.00;;;;;;;1.68;100.00;94729.41;5113259;28;20388;-76
2024/03/28 03:54:42;;;;;;;25.35;9.68;;;;;;;1.64;100.00;94725.75;5104398;28;20403;-76
2024/03/28 03:57:09;;;;;;;25.70;11.13;;;;;;;1.66;100.00;94733.28;5112891;28;20399;-76
2024/03/28 03:59:36;;;;;;;21.35;9.10;;;;;;;1.64;100.00;94738.78;5115145;28;20420;-76
2024/03/28 04:02:02;;;;;;;22.80;9.80;;;;;;;1.62;100.00;94742.69;5109240;28;20421;-76
2024/03/28 04:04:30;;;;;;;27.92;10.10;;;;;;;1.59;100.00;94735.38;5100073;28;20480;-76
2024/03/28 04:06:56;;;;;;;26.17;9.80;;;;;;;1.53;100.00;94722.34;5112513;28;20491;-76
2024/03/28 04:09:23;;;;;;;26.25;10.95;;;;;;;1.55;100.00;94714.28;5113024;28;20412;-76
2024/03/28 04:11:50;;;;;;;31.13;10.82;;;;;;;1.60;100.00;94705.66;5102678;28;20414;-76
2024/03/28 04:14:16;;;;;;;27.17;10.88;;;;;;;1.65;100.00;94711.69;5106565;28;20574;-75
2024/03/28 04:16:42;;;;;;;25.67;9.20;;;;;;;1.59;100.00;94704.88;5104206;28;20857;-75
2024/03/28 04:19:08;;;;;;;26.88;11.13;;;;;;;1.61;100.00;94702.03;5112438;28;21052;-75
2024/03/28 04:21:36;;;;;;;24.40;9.48;;;;;;;1.54;100.00;94697.84;5112848;28;20449;-75
2024/03/28 04:24:02;;;;;;;22.70;9.90;;;;;;;1.55;100.00;94693.41;5112812;28;20516;-75
2024/03/28 04:26:29;;;;;;;24.80;10.05;;;;;;;1.55;100.00;94685.59;5100796;28;20967;-75
2024/03/28 04:28:55;;;;;;;25.45;9.50;;;;;;;1.54;100.00;94676.22;5111764;28;20464;-75
2024/03/28 04:31:21;;;;;;;26.17;10.48;;;;;;;1.55;100.00;94683.00;5112378;28;20393;-75
2024/03/28 04:33:48;;;;;;;24.13;9.73;;;;;;;1.50;100.00;94693.44;5111778;28;20424;-75
2024/03/28 04:36:14;;;;;;;27.27;9.95;;;;;;;1.42;100.00;94681.69;5106652;28;20414;-75
2024/03/28 04:38:43;;;;;;;29.47;10.93;;;;;;;1.38;100.00;94674.63;5112405;28;20388;-74
2024/03/28 04:41:10;;;;;;;27.27;10.30;;;;;;;1.37;100.00;94676.47;5112494;28;20868;-75
2024/03/28 04:43:36;;;;;;;27.38;10.48;;;;;;;1.33;100.00;94667.59;5104047;28;20388;-75
2024/03/28 04:46:03;;;;;;;36.80;13.10;;;;;;;1.35;100.00;94672.56;5112096;28;20412;-75
2024/03/28 04:48:29;;;;;;;28.92;10.70;;;;;;;1.35;100.00;94670.75;5104685;28;20481;-75
2024/03/28 04:50:57;;;;;;;29.38;11.52;;;;;;;1.38;100.00;94674.63;5102825;28;20940;-75
2024/03/28 04:53:23;;;;;;;30.00;11.02;;;;;;;1.36;100.00;94664.47;5112362;28;20448;-75
2024/03/28 04:55:51;;;;;;;32.33;12.45;;;;;;;1.39;100.00;94663.97;5110146;28;20403;-75
2024/03/28 04:58:17;;;;;;;33.60;11.32;;;;;;;1.37;100.00;94670.47;5105871;28;20427;-75
2024/03/28 05:00:43;;;;;;;30.67;12.60;;;;;;;1.37;100.00;94658.22;5110971;28;20408;-74
2024/03/28 05:03:09;;;;;;;28.00;11.15;;;;;;;1.28;100.00;94666.81;5104605;28;20400;-76
2024/03/28 05:05:35;;;;;;;26.20;10.48;;;;;;;1.25;100.00;94656.91;5111905;28;20392;-73
2024/03/28 05:08:02;;;;;;;34.00;11.63;;;;;;;1.23;100.00;94651.16;5112155;28;20768;-76
2024/03/28 05:10:28;;;;;;;36.47;12.73;;;;;;;1.19;100.00;94661.34;5112644;28;20869;-75
2024/03/28 05:12:56;;;;;;;28.92;11.10;;;;;;;1.18;100.00;94657.16;5109469;28;20400;-75
2024/03/28 05:15:22;;;;;;;32.03;11.25;;;;;;;1.17;100.00;94666.00;5106443;28;20400;-75
2024/03/28 05:17:49;;;;;;;33.83;13.18;;;;;;;1.14;100.00;94662.09;5112061;28;20389;-75
2024/03/28 05:20:15;;;;;;;37.95;12.38;;;;;;;1.14;100.00;94659.50;5104045;28;20446;-75
2024/03/28 05:22:41;;;;;;;39.13;14.53;;;;;;;1.22;100.00;94667.84;5104008;28;20395;-74
2024/03/28 05:25:08;;;;;;;40.00;13.85;;;;;;;1.19;100.00;94668.38;5107576;28;20398;-75
2024/03/28 05:27:35;;;;;;;36.92;13.13;;;;;;;1.23;100.00;94669.41;5108275;28;20411;-76
2024/03/28 05:30:03;;;;;;;37.28;13.75;;;;;;;1.17;100.00;94664.19;5095603;28;20476;-76
2024/03/28 05:32:30;;;;;;;39.83;13.70;;;;;;;1.21;100.00;94668.88;5104063;28;20389;-76
2024/03/28 05:34:56;;;;;;;41.57;13.57;;;;;;;1.26;100.00;94674.13;5102448;28;20434;-76
2024/03/28 05:37:22;;;;;;;37.03;12.70;;;;;;;1.25;100.00;94685.56;5106086;28;20388;-76
2024/03/28 05:39:48;;;;;;;33.58;12.00;;;;;;;1.21;100.00;94679.28;5110248;28;20423;-76
2024/03/28 05:42:14;;;;;;;38.83;14.05;;;;;;;1.28;100.00;94679.84;5105309;28;20876;-76
2024/03/28 05:44:41;;;;;;;39.45;14.05;;;;;;;1.33;100.00;94679.84;5103989;28;20422;-76
2024/03/28 05:47:08;;;;;;;37.85;13.77;;;;;;;1.30;100.00;94675.94;5116154;28;20400;-76
2024/03/28 05:49:35;;;;;;;40.78;14.50;;;;;;;1.27;100.00;94675.69;5116187;28;20420;-76
2024/03/28 05:52:01;;;;;;;36.10;13.27;;;;;;;1.29;100.00;94678.78;5099271;28;20400;-76
2024/03/28 05:54:27;;;;;;;43.47;15.20;;;;;;;1.31;100.00;94668.91;5107686;28;20384;-76
2024/03/28 05:56:53;;;;;;;39.05;13.65;;;;;;;1.36;100.00;94668.88;5107715;28;20889;-76
2024/03/28 05:59:19;;;;;;;41.13;15.52;;;;;;;1.42;100.00;94666.06;5110025;28;20559;-76
2024/03/28 06:01:45;;;;;;;39.40;14.90;;;;;;;1.52;100.00;94681.69;5104084;28;20403;-77
2024/03/28 06:04:13;;;;;;;50.35;16.73;;;;;;;1.67;100.00;94672.28;5101771;28;20380;-76
2024/03/28 06:06:39;;;;;;;41.72;14.77;;;;;;;1.82;100.00;94674.88;5116518;28;20725;-77
2024/03/28 06:09:05;;;;;;;45.33;16.05;;;;;;;1.98;100.00;94668.63;5112196;28;20396;-76
2024/03/28 06:11:32;;;;;;;41.87;15.00;;;;;;;2.16;100.00;94667.28;5103423;28;20426;-76
2024/03/28 06:14:08;;;;;;;44.47;16.52;;;;;;;2.38;100.00;94667.75;5106644;28;20389;-77
2024/03/28 06:16:34;;;;;;;39.80;15.43;;;;;;;2.61;100.00;94663.75;5107432;28;20482;-76
2024/03/28 06:19:02;;;;;;;34.72;13.63;;;;;;;2.89;100.00;94664.94;5107225;28;20408;-76
2024/03/28 06:21:30;;;;;;;33.58;12.70;;;;;;;3.07;100.00;94672.94;5108722;28;20450;-76
2024/03/28 06:23:56;;;;;;;31.42;11.60;;;;;;;3.13;100.00;94672.91;5104665;28;20515;-76
2024/03/28 06:26:22;;;;;;;27.05;10.02;;;;;;;3.15;100.00;94676.03;5101120;28;20404;-76
2024/03/28 06:28:49;;;;;;;21.40;9.50;;;;;;;3.15;100.00;94674.22;5113465;28;20898;-76
2024/03/28 06:31:17;;;;;;;18.08;7.68;;;;;;;3.14;100.00;94662.19;5103262;28;20404;-75
2024/03/28 06:33:45;;;;;;;35.45;12.57;;;;;;;2.99;100.00;94668.28;5100556;28;20386;-73
2024/03/28 06:36:11;;;;;;;26.80;10.55;;;;;;;3.09;100.00;94670.81;5098433;28;20440;-75
2024/03/28 06:38:38;;;;;;;25.98;9.93;;;;;;;3.16;100.00;94678.34;5098814;28;20394;-79
2024/03/28 06:41:04;;;;;;;23.02;8.30;;;;;;;3.26;100.00;94675.69;5103823;28;20392;-78
2024/03/28 06:43:30;;;;;;;19.17;7.50;;;;;;;3.37;100.00;94681.66;5097661;28;20451;-77
2024/03/28 06:45:57;;;;;;;18.95;7.90;;;;;;;3.45;100.00;94681.84;5098181;28;20414;-76
2024/03/28 06:48:23;;;;;;;17.15;7.18;;;;;;;3.52;100.00;94688.59;5098445;28;20393;-76
2024/03/28 06:50:50;;;;;;;18.45;6.50;;;;;;;3.61;100.00;94698.19;5098860;28;20394;-75
2024/03/28 06:53:16;;;;;;;17.43;7.13;;;;;;;3.70;100.00;94701.00;5105880;28;20475;-76
2024/03/28 06:55:43;;;;;;;18.70;7.75;;;;;;;3.88;100.00;94703.75;5104256;28;20390;-76
2024/03/28 06:58:09;;;;;;;18.17;7.80;;;;;;;3.88;100.00;94710.81;5104745;28;21193;-76
2024/03/28 07:00:37;;;;;;;18.80;7.77;;;;;;;3.70;100.00;94717.50;5097645;28;20414;-76
2024/03/28 07:03:06;;;;;;;23.42;8.60;;;;;;;3.66;100.00;94715.72;5095962;28;20402;-78
2024/03/28 07:05:32;;;;;;;21.88;8.65;;;;;;;3.58;100.00;94732.75;5102238;28;20394;-77
2024/03/28 07:07:58;;;;;;;22.17;8.32;;;;;;;3.46;100.00;94727.84;5096820;28;20475;-76
2024/03/28 07:10:24;;;;;;;24.80;9.38;;;;;;;3.50;100.00;94741.97;5110097;28;20400;-77
2024/03/28 07:12:52;;;;;;;26.33;9.10;;;;;;;3.43;100.00;94738.88;5093236;28;20402;-75
2024/03/28 07:15:18;;;;;;;26.40;8.65;;;;;;;3.44;100.00;94742.25;5093042;28;20420;-79
2024/03/28 07:17:44;;;;;;;21.33;7.80;;;;;;;3.43;100.00;94732.84;5093446;28;20398;-77
2024/03/28 07:20:11;;;;;;;31.90;10.85;;;;;;;3.47;100.00;94718.97;5090829;28;20904;-76
2024/03/28 07:22:38;;;;;;;34.13;11.70;;;;;;;3.52;100.00;94712.94;5093525;28;20401;-79
2024/03/28 07:25:06;;;;;;;35.23;11.20;;;;;;;3.60;100.00;94711.56;5100800;28;20499;-77
2024/03/28 07:27:32;;;;;;;34.15;10.43;;;;;;;3.65;100.00;94729.84;5092884;28;20416;-76
2024/03/28 07:30:00;;;;;;;27.00;9.48;;;;;;;3.75;100.00;94748.09;5091168;28;20397;-75
2024/03/28 07:32:26;;;;;;;36.05;11.18;;;;;;;3.82;100.00;94754.56;5087988;28;20413;-76
2024/03/28 07:34:53;;;;;;;34.97;10.77;;;;;;;3.92;100.00;94747.69;5093969;28;20799;-76
2024/03/28 07:37:19;;;;;;;30.27;9.27;;;;;;;3.97;100.00;94745.81;5087764;28;20414;-76
2024/03/28 07:39:45;;;;;;;33.22;10.95;;;;;;;4.12;100.00;94765.88;5091325;28;20422;-78
2024/03/28 07:42:11;;;;;;;28.67;9.90;;;;;;;4.19;100.00;94767.13;5091705;28;20401;-77
2024/03/28 07:44:37;;;;;;;34.85;10.68;;;;;;;4.33;100.00;94764.63;5098616;28;20404;-78
2024/03/28 07:47:05;;;;;;;26.70;8.73;;;;;;;4.34;100.00;94741.84;5102757;28;20479;-78
2024/03/28 07:49:31;;;;;;;24.83;8.20;;;;;;;4.44;100.00;94750.38;5095432;28;20402;-79
2024/03/28 07:51:59;;;;;;;25.77;8.90;;;;;;;4.59;100.00;94738.97;5098578;28;20400;-79
2024/03/28 07:54:25;;;;;;;22.05;7.93;;;;;;;4.70;100.00;94750.91;5094840;28;20489;-78
2024/03/28 07:56:51;;;;;;;21.45;8.45;;;;;;;4.85;100.00;94791.91;5095224;28;20387;-79
2024/03/28 07:59:17;;;;;;;20.83;8.10;;;;;;;4.90;100.00;94800.50;5099366;28;20428;-79
2024/03/28 08:01:43;;;;;;;15.82;7.05;;;;;;;4.86;100.00;94803.94;5100300;28;20393;-78
2024/03/28 08:04:11;;;;;;;12.13;5.13;;;;;;;4.87;100.00;94801.06;5109775;28;20486;-78
2024/03/28 08:06:39;;;;;;;9.52;4.60;;;;;;;4.93;100.00;94817.50;5081880;28;20465;-77
2024/03/28 08:09:05;;;;;;;14.00;5.80;;;;;;;4.98;100.00;94827.94;5093118;28;20460;-78
2024/03/28 08:11:31;;;;;;;12.18;5.70;;;;;;;5.00;100.00;94828.44;5094037;28;20437;-78
2024/03/28 08:13:57;;;;;;;16.15;6.03;;;;;;;5.06;100.00;94829.94;5093886;28;20425;-78
2024/03/28 08:16:24;;;;;;;11.65;5.88;;;;;;;4.96;100.00;94836.06;5093524;28;20394;-78
2024/03/28 08:18:50;;;;;;;12.25;5.70;;;;;;;4.97;100.00;94842.09;5093495;28;20405;-77
2024/03/28 08:21:19;;;;;;;15.15;6.00;;;;;;;4.84;100.00;94846.16;5093598;28;20398;-78
2024/03/28 08:23:45;;;;;;;11.25;5.28;;;;;;;5.04;100.00;94845.94;5093264;28;20399;-77
2024/03/28 08:26:11;;;;;;;10.63;5.05;;;;;;;5.19;100.00;94870.47;5093838;28;20400;-78
2024/03/28 08:28:38;;;;;;;11.98;5.18;;;;;;;5.33;100.00;94868.75;5095224;28;20406;-78
2024/03/28 08:31:06;;;;;;;8.43;4.70;;;;;;;5.24;100.00;94863.31;5094579;28;20402;-78
2024/03/28 08:33:35;;;;;;;11.40;4.88;;;;;;;5.31;100.00;94878.72;5095007;28;20488;-78
2024/03/28 08:36:02;;;;;;;8.05;4.10;;;;;;;5.28;100.00;94885.31;5095794;28;20425;-77
2024/03/28 08:38:30;;;;;;;10.73;4.85;;;;;;;5.42;100.00;94912.44;5109582;28;20431;-78
2024/03/28 08:40:57;;;;;;;11.48;4.70;;;;;;;5.77;100.00;94921.78;5124840;28;20441;-78
2024/03/28 08:43:23;;;;;;;8.30;3.80;;;;;;;5.59;100.00;94922.50;5117604;28;20392;-79
2024/03/28 08:45:49;;;;;;;7.68;4.25;;;;;;;5.81;100.00;94914.09;5100205;28;20414;-80
2024/03/28 08:48:16;;;;;;;7.63;4.00;;;;;;;5.64;100.00;94908.56;5112166;28;20925;-80
2024/03/28 08:50:42;;;;;;;5.90;3.78;;;;;;;5.75;100.00;94917.84;5116167;28;20403;-79
2024/03/28 08:53:08;;;;;;;5.68;3.35;;;;;;;5.56;100.00;94935.41;5116276;28;20392;-79
2024/03/28 08:55:36;;;;;;;5.05;3.42;;;;;;;5.58;100.00;94946.38;5117302;28;20395;-80
2024/03/28 08:58:03;;;;;;;4.50;3.20;;;;;;;5.58;100.00;94956.88;5109162;28;20388;-79
2024/03/28 09:00:31;;;;;;;5.03;3.40;;;;;;;5.62;100.00;94942.16;5114470;28;20412;-80
2024/03/28 09:02:58;;;;;;;6.93;3.25;;;;;;;5.93;100.00;94958.38;5116814;28;20400;-78
2024/03/28 09:05:24;;;;;;;3.85;2.72;;;;;;;6.11;100.00;94952.34;5119909;28;20392;-78
2024/03/28 09:07:50;;;;;;;3.80;2.80;;;;;;;6.08;100.00;94945.06;5114592;28;20411;-79
2024/03/28 09:10:16;;;;;;;3.70;2.90;;;;;;;5.97;100.00;94951.47;5114886;28;20400;-80
2024/03/28 09:12:47;;;;;;;4.07;2.60;;;;;;;6.14;100.00;94970.97;5115081;28;20433;-76
2024/03/28 09:15:14;;;;;;;4.32;2.42;;;;;;;6.33;100.00;94965.72;5107726;28;20393;-76
2024/03/28 09:17:40;;;;;;;2.80;2.10;;;;;;;6.25;100.00;94978.72;5093138;28;20390;-80
2024/03/28 09:20:07;;;;;;;3.97;2.15;;;;;;;6.11;100.00;94978.63;5093177;28;20417;-79
2024/03/28 09:22:34;;;;;;;4.93;3.05;;;;;;;6.06;100.00;94976.06;5097304;28;20875;-80
2024/03/28 09:25:00;;;;;;;3.47;2.22;;;;;;;6.11;100.00;94981.25;5113863;28;20405;-79
2024/03/28 09:27:27;;;;;;;2.28;2.08;;;;;;;6.33;100.00;94983.34;5098710;28;20492;-80
2024/03/28 09:29:55;;;;;;;2.75;2.00;;;;;;;6.27;100.00;94989.72;5117541;28;20394;-80
2024/03/28 09:32:21;;;;;;;2.05;1.85;;;;;;;6.48;100.00;94983.13;5118208;28;20398;-79
2024/03/28 09:34:48;;;;;;;2.10;1.90;;;;;;;6.31;100.00;94998.63;5098696;28;20393;-79
2024/03/28 09:37:15;;;;;;;2.47;1.70;;;;;;;6.47;100.00;95005.22;5075689;28;20931;-79
2024/03/28 09:39:44;;;;;;;2.08;1.88;;;;;;;6.26;100.00;95015.22;5096493;28;20413;-79
2024/03/28 09:42:18;;;;;;;1.77;1.60;;;;;;;6.03;100.00;95002.88;5099509;28;20398;-78
2024/03/28 09:44:44;;;;;;;9.38;1.90;;;;;;;6.17;100.00;95003.75;5098024;28;20776;-78
2024/03/28 09:47:15;;;;;;;1.90;1.70;;;;;;;6.21;100.00;95023.16;5098960;28;20398;-80
2024/03/28 09:49:43;;;;;;;1.95;1.60;;;;;;;6.22;100.00;95048.38;5105527;28;20744;-77
2024/03/28 09:52:10;;;;;;;1.75;1.50;;;;;;;6.49;100.00;95032.00;5098068;28;20389;-80
2024/03/28 09:54:40;;;;;;;1.50;1.40;;;;;;;6.59;100.00;95050.28;5102034;28;20392;-79
2024/03/28 09:57:06;;;;;;;1.60;1.40;;;;;;;6.48;100.00;95049.63;5098639;28;20511;-75
2024/03/28 09:59:32;;;;;;;1.70;1.23;;;;;;;6.73;100.00;95038.00;5098252;28;20509;-76
2024/03/28 10:02:09;;;;;;;4.07;1.35;;;;;;;6.68;100.00;95039.91;5097712;28;20390;-78
2024/03/28 10:04:38;;;;;;;1.70;1.30;;;;;;;6.61;100.00;95037.66;5099315;28;20409;-77
2024/03/28 10:07:05;;;;;;;1.73;1.42;;;;;;;6.76;100.00;95037.44;5097989;28;20391;-78
2024/03/28 10:09:31;;;;;;;1.40;1.30;;;;;;;6.96;100.00;95031.88;5098198;28;20406;-78
2024/03/28 10:11:57;;;;;;;1.70;1.30;;;;;;;7.08;100.00;95009.63;5097443;28;20401;-78
2024/03/28 10:14:26;;;;;;;1.80;1.40;;;;;;;7.15;100.00;95004.78;5105016;28;20388;-79
2024/03/28 10:17:01;;;;;;;2.25;1.20;;;;;;;7.43;100.00;94998.53;5119738;28;20392;-80
2024/03/28 10:19:29;;;;;;;1.15;1.02;;;;;;;7.90;100.00;95005.31;5120746;28;20412;-77
2024/03/28 10:22:06;;;;;;;1.90;1.20;;;;;;;7.87;100.00;95005.13;5127347;28;20384;-79
2024/03/28 10:24:35;;;;;;;1.65;1.10;;;;;;;8.58;100.00;95004.53;5118613;28;20402;-79
2024/03/28 10:27:11;;;;;;;1.42;0.95;;;;;;;8.33;100.00;95011.13;5105705;28;20394;-79
2024/03/28 10:29:37;;;;;;;1.63;1.00;;;;;;;8.81;100.00;95003.50;5112980;28;20404;-80
2024/03/28 10:32:04;;;;;;;0.88;0.88;;;;;;;8.76;100.00;95003.63;5112134;28;20397;-78
2024/03/28 10:34:30;;;;;;;1.00;1.00;;;;;;;8.69;100.00;95005.09;5111701;28;20409;-77
2024/03/28 10:37:05;;;;;;;0.90;0.90;;;;;;;8.87;100.00;95004.94;5099387;28;20526;-80
2024/03/28 10:39:31;;;;;;;0.90;0.90;;;;;;;8.94;100.00;95004.56;5095533;28;20418;-78
2024/03/28 10:41:59;;;;;;;0.88;0.88;;;;;;;9.19;100.00;95006.59;5098690;28;20745;-79
2024/03/28 10:44:27;;;;;;;1.10;1.00;;;;;;;9.20;100.00;95024.00;5116581;28;20384;-79
2024/03/28 10:46:56;;;;;;;1.30;1.00;;;;;;;9.58;100.00;95034.19;5099953;28;20908;-78
2024/03/28 10:49:31;;;;;;;1.20;0.90;;;;;;;9.43;100.00;95001.00;5107000;28;20424;-79
2024/03/28 10:52:03;;;;;;;1.00;1.00;;;;;;;9.39;100.00;95013.25;5081277;28;20421;-79
2024/03/28 10:54:43;;;;;;;1.05;0.90;;;;;;;9.43;100.00;95018.72;5103116;28;20458;-78
2024/03/28 10:57:09;;;;;;;3.58;1.30;;;;;;;9.46;100.00;95028.69;5091443;28;20397;-78
2024/03/28 10:59:39;;;;;;;1.52;0.90;;;;;;;10.02;100.00;95049.97;5098789;28;20416;-79
2024/03/28 11:02:06;;;;;;;1.63;1.00;;;;;;;10.81;100.00;95020.06;5096608;28;20394;-78
2024/03/28 11:04:34;;;;;;;0.70;0.70;;;;;;;11.01;100.00;95023.94;5104006;28;20398;-78
2024/03/28 11:07:01;;;;;;;0.70;0.70;;;;;;;11.57;100.00;95038.91;5101808;28;20405;-79
2024/03/28 11:09:28;;;;;;;2.75;0.82;;;;;;;12.01;100.00;95019.94;5096585;28;20433;-78
2024/03/28 11:11:58;;;;;;;0.70;0.70;;;;;;;12.13;100.00;95013.19;5106000;28;20448;-80
2024/03/28 11:14:25;;;;;;;0.90;0.70;;;;;;;12.29;100.00;95022.16;5094652;28;20396;-79
2024/03/28 11:17:00;;;;;;;1.17;0.75;;;;;;;12.88;100.00;95030.91;5106573;28;20740;-78
2024/03/28 11:19:26;;;;;;;2.45;0.77;;;;;;;13.61;100.00;95041.91;5106729;28;20412;-79
2024/03/28 11:21:54;;;;;;;0.95;0.55;;;;;;;13.67;100.00;95026.56;5109192;28;20392;-79
2024/03/28 11:24:22;;;;;;;1.60;0.67;;;;;;;14.30;100.00;95033.97;5111437;28;20398;-78
2024/03/28 11:26:58;;;;;;;0.50;0.50;;;;;;;14.93;100.00;95031.78;5098860;28;20401;-78
2024/03/28 11:29:25;;;;;;;1.27;0.50;;;;;;;15.58;100.00;95021.81;5105176;28;20395;-78